Decatur, Iowa
Current Conditions -  °F | °C
As of 9:53 PM on Sunday 25 Jan 2015 (Local Time) from KLWD Reporting Station
Overcast Overcast  
Wind Chill: -4°   Ceiling: 1200
Heat Index: -1°   Visibility: 10mi
Dew Point: -3°   Wind: 7mph
Humidity: 85%   Direction: 340°NNW
Pressure: 30.08"   Gusts: NA
Location:  40.74°N, 93.84°W
Report Text: KLWD 260353Z AUTO 34006KT 10SM OVC012 M01/M03 A3008 RMK AO2 SLP197 T10061028
Loading
Personal Weather Stations






























Interactive Weather Map New forecast layout! Learn more

10-Day Weather Forecast

Advertisements
Track Severe Weather on mobile